Dades meteomassalio
Diari Summary for Gener 13, 2018 Units:  English    Metric   Both
« Previous Day
Next Day »
Diari Semanal Mensual Anual Personalitzat
  Maxima: Minima: Mijana:
Temperatura: TemperatureC °F -2.2 °F 3.2 °F
Rosada: DewpointC °F -3.5 °F 1.3 °F
Humitat: Humidity % 74 % 87 %
Velocitat del vent: WindSpeedKMH mph 0.0 mph 0.9 mph
Racha vent: WindSpeedGustKMH mph - -
Vent:- - South
Pressio: PressurehPa in 1018.5 in -
Pluja: 1.3 in    
Historical Graphs
 
 
Tabular Data for Gener 13, 2018
Time Temperature Dew Point Pressure Wind Wind Speed Wind Gust Humidity Rainfall Rate (Hourly) solar Conditions
TemperatureC °F DewpointC °F PressurehPa in Calm     Humidity % HourlyPrecipMM in SolarRadiationWatts/m^2 W/m2 Conditions
00:00 2.2 °F 0.1 °F 1026.3 in Calm     86 % 0.0 in 0.0 W/m2 CLR
00:12 1.7 °F -0.3 °F 1026.3 in Calm     87 % 0.0 in 0.0 W/m2 CLR
00:21 1.1 °F -0.8 °F 1026.3 in Calm     87 % 0.0 in 0.0 W/m2 CLR
00:29 1.1 °F -0.8 °F 1026.3 in Calm     87 % 0.0 in 0.0 W/m2 CLR
00:36 1.7 °F -0.3 °F 1026.3 in Calm     87 % 0.0 in 0.0 W/m2 CLR
00:46 1.1 °F -0.8 °F 1026.3 in Calm     87 % 0.0 in 0.0 W/m2 CLR
00:54 1.1 °F -0.7 °F 1026.0 in Calm     88 % 0.0 in 0.0 W/m2 CLR
01:11 1.1 °F -0.7 °F 1026.0 in Calm     88 % 0.0 in 0.0 W/m2 CLR
01:18 0.6 °F -1.2 °F 1026.0 in Calm     88 % 0.0 in 0.0 W/m2 CLR
01:26 0.6 °F -1.2 °F 1026.0 in Calm     88 % 0.0 in 0.0 W/m2 CLR
01:42 0.0 °F -1.6 °F 1025.6 in Calm     89 % 0.0 in 0.0 W/m2 CLR
01:54 0.0 °F -1.6 °F 1025.6 in Calm     89 % 0.0 in 0.0 W/m2 CLR
02:03 0.0 °F -1.4 °F 1025.3 in Calm     90 % 0.0 in 0.0 W/m2 CLR
02:12 0.0 °F -1.4 °F 1025.3 in Calm     90 % 0.0 in 0.0 W/m2 CLR
02:21 0.0 °F -1.4 °F 1024.9 in Calm     90 % 0.0 in 0.0 W/m2 CLR
02:26 0.0 °F -1.4 °F 1024.9 in Calm     90 % 0.0 in 0.0 W/m2 CLR
02:34 -0.6 °F -2.0 °F 1024.9 in Calm     90 % 0.0 in 0.0 W/m2 CLR
02:45 -0.6 °F -2.0 °F 1024.9 in Calm     90 % 0.0 in 0.0 W/m2 CLR
03:00 -0.6 °F -2.0 °F 1024.9 in Calm     90 % 0.0 in 0.0 W/m2 CLR
03:06 -1.1 °F -2.6 °F 1024.9 in Calm     90 % 0.0 in 0.0 W/m2 CLR
03:22 -0.6 °F -1.8 °F 1024.9 in Calm     91 % 0.0 in 0.0 W/m2 CLR
03:28 -0.6 °F -1.8 °F 1024.9 in Calm     91 % 0.0 in 0.0 W/m2 CLR
03:48 -0.6 °F -1.8 °F 1024.9 in Calm     91 % 0.0 in 0.0 W/m2 CLR
04:04 -0.6 °F -1.8 °F 1024.9 in Calm     91 % 0.0 in 0.0 W/m2 CLR
04:16 -1.1 °F -2.4 °F 1024.6 in Calm     91 % 0.0 in 0.0 W/m2 CLR
04:22 -1.1 °F -2.4 °F 1024.6 in Calm     91 % 0.0 in 0.0 W/m2 CLR
04:52 -1.1 °F -2.4 °F 1024.3 in Calm     91 % 0.0 in 0.0 W/m2 CLR
04:58 -1.1 °F -2.4 °F 1024.3 in Calm     91 % 0.0 in 0.0 W/m2 CLR
05:07 -1.1 °F -2.4 °F 1024.3 in Calm     91 % 0.0 in 0.0 W/m2 CLR
05:16 -1.1 °F -2.4 °F 1024.3 in Calm     91 % 0.0 in 0.0 W/m2 CLR
05:34 -1.7 °F -2.9 °F 1023.9 in Calm     91 % 0.0 in 0.0 W/m2 CLR
05:39 -1.7 °F -2.9 °F 1023.9 in Calm     91 % 0.0 in 0.0 W/m2 CLR
05:52 -2.2 °F -3.5 °F 1023.6 in Calm     91 % 0.0 in 0.0 W/m2 CLR
06:05 -2.2 °F -3.3 °F 1023.2 in Calm     92 % 0.0 in 0.0 W/m2 CLR
06:17 -2.2 °F -3.3 °F 1023.6 in Calm     92 % 0.0 in 0.0 W/m2 CLR
06:34 -2.2 °F -3.3 °F 1023.6 in Calm     92 % 0.0 in 0.0 W/m2 CLR
06:44 -2.2 °F -3.3 °F 1023.6 in Calm     92 % 0.0 in 0.0 W/m2 CLR
06:55 -2.2 °F -3.3 °F 1023.2 in Calm     92 % 0.0 in 0.0 W/m2 CLR
07:14 -2.2 °F -3.3 °F 1023.2 in Calm     92 % 0.0 in 0.0 W/m2 CLR
07:36 -1.7 °F -2.8 °F 1022.9 in Calm     92 % 0.0 in 0.0 W/m2 CLR
07:56 -1.7 °F -2.8 °F 1022.9 in Calm     92 % 0.0 in 0.0 W/m2 CLR
08:04 -1.7 °F -2.8 °F 1022.9 in Calm     92 % 0.0 in 0.0 W/m2 CLR
08:16 -1.7 °F -2.8 °F 1022.9 in Calm     92 % 0.0 in 7.0 W/m2 OVC
09:03 -1.7 °F -2.8 °F 1023.2 in Calm     92 % 0.0 in 56.0 W/m2 SCT
09:09 -1.1 °F -2.2 °F 1023.2 in Calm     92 % 0.0 in 74.0 W/m2 FEW
09:25 -1.1 °F -2.2 °F 1023.2 in Calm     92 % 0.0 in 49.0 W/m2 FEW
09:37 -0.6 °F -1.7 °F 1023.2 in Calm     92 % 0.0 in 83.0 W/m2 FEW
10:09 0.0 °F -1.3 °F 1023.2 in Calm     91 % 0.3 in 123.0 W/m2 CLR
10:14 0.0 °F -1.3 °F 1023.2 in Calm     91 % 0.3 in 218.0 W/m2 CLR
10:20 0.6 °F -0.7 °F 1023.2 in Calm     91 % 0.3 in 218.0 W/m2 CLR
10:27 1.1 °F -0.3 °F 1023.2 in Calm     90 % 0.3 in 195.0 W/m2 CLR
10:39 1.7 °F 0.1 °F 1023.2 in Calm     89 % 0.3 in 330.0 W/m2 CLR
10:50 2.2 °F 0.3 °F 1023.2 in Calm     87 % 0.3 in 183.0 W/m2 CLR
11:07 3.9 °F 1.6 °F 1023.6 in Calm     85 % 0.0 in 193.0 W/m2 CLR
11:15 4.4 °F 2.0 °F 1023.2 in Calm     84 % 0.0 in 179.0 W/m2 CLR
11:25 4.4 °F 1.8 °F 1023.2 in Calm     83 % 0.0 in 274.0 W/m2 CLR
12:10 7.2 °F 3.4 °F 1022.6 in Calm     77 % 0.0 in 439.0 W/m2 CLR
12:26 8.3 °F 3.9 °F 1022.2 in East 8.0 mph 8.0 mph 74 % 0.0 in 392.0 W/m2 CLR
12:31 8.3 °F 4.2 °F 1022.2 in East 5.6 mph 5.6 mph 75 % 0.0 in 496.0 W/m2 CLR
12:42 8.3 °F 4.2 °F 1021.9 in NE 5.6 mph 5.6 mph 75 % 0.0 in 355.0 W/m2 CLR
12:56 8.3 °F 4.3 °F 1021.6 in ENE 5.6 mph 5.6 mph 76 % 0.0 in 339.0 W/m2 CLR
13:03 8.3 °F 4.6 °F 1021.6 in ENE 9.3 mph 9.3 mph 77 % 0.0 in 248.0 W/m2 CLR
13:08 8.3 °F 4.6 °F 1021.6 in ENE 9.3 mph 9.3 mph 77 % 0.0 in 230.0 W/m2 CLR
13:27 7.8 °F 4.4 °F 1020.9 in ENE 5.6 mph 5.6 mph 79 % 0.0 in 134.0 W/m2 CLR
13:34 7.8 °F 4.4 °F 1021.2 in ENE 3.7 mph 3.7 mph 79 % 0.0 in 132.0 W/m2 CLR
13:39 7.8 °F 4.4 °F 1020.9 in ENE 5.6 mph 5.6 mph 79 % 0.0 in 128.0 W/m2 CLR
13:51 7.8 °F 4.6 °F 1020.9 in Calm     80 % 0.0 in 113.0 W/m2 CLR
14:00 7.8 °F 4.6 °F 1020.5 in Calm     80 % 0.0 in 125.0 W/m2 CLR
14:08 7.8 °F 4.7 °F 1020.5 in Calm     81 % 0.0 in 188.0 W/m2 CLR
14:18 7.8 °F 4.7 °F 1020.2 in East 1.9 mph 1.9 mph 81 % 0.0 in 146.0 W/m2 CLR
14:29 7.2 °F 4.2 °F 1019.9 in ENE 5.6 mph 5.6 mph 81 % 0.0 in 109.0 W/m2 CLR
14:54 7.8 °F 4.9 °F 1019.9 in Calm     82 % 0.0 in 116.0 W/m2 CLR
15:02 7.8 °F 4.9 °F 1019.9 in Calm     82 % 0.0 in 111.0 W/m2 CLR
15:10 7.8 °F 5.1 °F 1019.9 in Calm     83 % 0.0 in 95.0 W/m2 CLR
15:18 7.8 °F 5.1 °F 1019.9 in Calm     83 % 0.0 in 109.0 W/m2 CLR
15:29 7.8 °F 4.9 °F 1019.5 in North 3.7 mph 3.7 mph 82 % 0.0 in 95.0 W/m2 CLR
15:35 7.8 °F 5.1 °F 1019.2 in Calm     83 % 0.0 in 102.0 W/m2 CLR
15:49 7.8 °F 5.1 °F 1019.2 in Calm     83 % 0.0 in 102.0 W/m2 CLR
15:54 7.8 °F 5.1 °F 1019.2 in Calm     83 % 0.0 in 107.0 W/m2 CLR
16:19 7.8 °F 5.1 °F 1019.2 in Calm     83 % 0.0 in 195.0 W/m2 CLR
16:25 7.8 °F 5.1 °F 1018.8 in Calm     83 % 0.0 in 322.0 W/m2 CLR
16:33 7.8 °F 4.9 °F 1019.2 in Calm     82 % 0.0 in 102.0 W/m2 CLR
16:39 7.8 °F 4.9 °F 1019.2 in Calm     82 % 0.0 in 51.0 W/m2 FEW
16:47 7.2 °F 4.5 °F 1018.8 in Calm     83 % 0.0 in 46.0 W/m2 SCT
16:56 7.2 °F 4.5 °F 1018.5 in Calm     83 % 0.0 in 67.0 W/m2 FEW
17:03 7.2 °F 4.5 °F 1018.5 in Calm     83 % 0.0 in 35.0 W/m2 BKN
17:10 6.7 °F 4.0 °F 1018.5 in Calm     83 % 0.0 in 28.0 W/m2 BKN
17:17 6.7 °F 4.0 °F 1018.5 in Calm     83 % 0.0 in 33.0 W/m2 BKN
17:22 6.1 °F 3.4 °F 1018.5 in Calm     83 % 0.0 in 26.0 W/m2 BKN
17:40 5.0 °F 2.5 °F 1018.5 in Calm     84 % 0.0 in 9.0 W/m2 BKN
17:46 4.4 °F 2.2 °F 1018.5 in Calm     85 % 0.0 in 5.0 W/m2 OVC
17:55 3.9 °F 1.6 °F 1018.8 in NNW 5.6 mph 5.6 mph 85 % 0.0 in 0.0 W/m2 OVC
18:11 4.4 °F 2.4 °F 1018.8 in NNW 11.1 mph 11.1 mph 87 % 0.0 in 0.0 W/m2 CLR
18:32 3.9 °F 2.1 °F 1018.8 in Calm     88 % 0.0 in 0.0 W/m2 CLR
18:38 3.9 °F 2.1 °F 1019.2 in Calm     88 % 0.0 in 0.0 W/m2 CLR
18:44 3.9 °F 2.1 °F 1019.5 in Calm     88 % 0.0 in 0.0 W/m2 CLR
19:02 3.9 °F 2.2 °F 1019.5 in Calm     89 % 0.0 in 0.0 W/m2 CLR
19:08 4.4 °F 2.8 °F 1019.5 in Calm     89 % 0.0 in 0.0 W/m2 CLR
19:14 4.4 °F 2.8 °F 1019.5 in Calm     89 % 0.0 in 0.0 W/m2 CLR
19:21 4.4 °F 2.8 °F 1019.5 in Calm     89 % 0.0 in 0.0 W/m2 CLR
19:30 4.4 °F 2.8 °F 1019.2 in Calm     89 % 0.0 in 0.0 W/m2 CLR
19:38 4.4 °F 2.8 °F 1019.2 in Calm     89 % 0.0 in 0.0 W/m2 CLR
20:19 3.9 °F 2.2 °F 1019.2 in West 1.9 mph 1.9 mph 89 % 0.0 in 0.0 W/m2 CLR
20:24 4.4 °F 2.8 °F 1019.2 in Calm     89 % 0.0 in 0.0 W/m2 CLR
20:30 4.4 °F 2.8 °F 1019.2 in Calm     89 % 0.0 in 0.0 W/m2 CLR
20:46 5.0 °F 3.3 °F 1019.2 in Calm     89 % 0.0 in 0.0 W/m2 CLR
21:04 4.4 °F 2.8 °F 1019.2 in Calm     89 % 0.0 in 0.0 W/m2 CLR
21:13 4.4 °F 2.8 °F 1019.2 in Calm     89 % 0.0 in 0.0 W/m2 CLR
21:19 4.4 °F 2.8 °F 1019.2 in Calm     89 % 0.0 in 0.0 W/m2 CLR
21:35 5.0 °F 3.2 °F 1019.9 in NW 3.7 mph 3.7 mph 88 % 0.0 in 0.0 W/m2 CLR
21:42 5.0 °F 3.2 °F 1019.9 in NW 5.6 mph 5.6 mph 88 % 0.0 in 0.0 W/m2 CLR
22:00 5.0 °F 3.2 °F 1019.9 in Calm     88 % 0.3 in 0.0 W/m2 RA
22:06 5.0 °F 3.3 °F 1019.9 in WNW 1.9 mph 1.9 mph 89 % 0.5 in 0.0 W/m2 RA
22:13 5.0 °F 3.3 °F 1020.2 in Calm     89 % 0.5 in 0.0 W/m2 CLR
22:22 5.0 °F 3.5 °F 1019.9 in Calm     90 % 0.5 in 0.0 W/m2 CLR
22:40 5.0 °F 3.5 °F 1019.9 in Calm     90 % 0.8 in 0.0 W/m2 CLR
22:49 4.4 °F 3.1 °F 1019.9 in Calm     91 % 0.8 in 0.0 W/m2 CLR
23:02 4.4 °F 3.1 °F 1019.9 in Calm     91 % 0.5 in 0.0 W/m2 CLR
23:15 4.4 °F 3.1 °F 1019.9 in Calm     91 % 0.3 in 0.0 W/m2 CLR
23:27 5.0 °F 3.8 °F 1019.5 in West 5.6 mph 5.6 mph 92 % 0.3 in 0.0 W/m2 CLR
23:33 5.0 °F 3.8 °F 1019.9 in West 5.6 mph 5.6 mph 92 % 0.0 in 0.0 W/m2 CLR
23:47 5.0 °F 3.7 °F 1019.5 in Calm     91 % 0.3 in 0.0 W/m2 RA
23:54 5.0 °F 3.7 °F 1019.5 in Calm     91 % 0.3 in 0.0 W/m2 CLR
23:59 5.0 °F 3.7 °F 1019.5 in Calm     91 % 0.3 in 0.0 W/m2 CLR
Lo Temps de Massalio
Compliments of Weather Underground - 768 kb